Time;durP1;ratioP1;P1;durP2;ratioP2;P2;SDS_P1;SDS_P2;PMS_P1;PMS_P2;Temp;Humidity;BMP_temperature;BMP_pressure;BME280_temperature;BME280_humidity;BME280_pressure;Samples;Min_cycle;Max_cycle;Signal;HPM_P1;HPM_P2
2021/08/06 00:00:34;;;;;;;3.78;3.33;;;;;;;17.72;100.00;100015.44;5031655;28;20516;-74
2021/08/06 00:03:01;;;;;;;6.75;3.50;;;;;;;17.92;100.00;100004.53;5033419;28;20055;-73
2021/08/06 00:05:26;;;;;;;4.00;3.22;;;;;;;17.97;100.00;100013.00;5031354;28;20021;-72
2021/08/06 00:07:51;;;;;;;4.50;3.40;;;;;;;18.02;100.00;100011.75;5033386;28;20052;-74
2021/08/06 00:10:17;;;;;;;4.35;3.25;;;;;;;18.04;100.00;100007.38;5031112;28;20044;-73
2021/08/06 00:12:42;;;;;;;5.93;3.30;;;;;;;17.86;100.00;100007.00;5033012;28;20041;-72
2021/08/06 00:15:08;;;;;;;4.30;3.53;;;;;;;17.60;100.00;100013.31;5028627;28;20037;-72
2021/08/06 00:17:34;;;;;;;6.32;3.15;;;;;;;17.63;100.00;100009.78;5016052;28;20022;-73
2021/08/06 00:19:59;;;;;;;4.03;3.20;;;;;;;17.79;100.00;100006.34;5029017;28;20087;-73
2021/08/06 00:22:25;;;;;;;6.55;3.60;;;;;;;17.56;100.00;100009.91;5027670;28;20405;-73
2021/08/06 00:24:51;;;;;;;4.20;3.08;;;;;;;17.56;100.00;100015.34;5028749;28;20033;-73
2021/08/06 00:27:16;;;;;;;6.80;3.47;;;;;;;17.57;100.00;100016.13;5026334;28;20036;-74
2021/08/06 00:29:42;;;;;;;5.32;3.53;;;;;;;17.50;100.00;100013.53;5024184;28;20025;-73
2021/08/06 00:32:07;;;;;;;5.43;3.85;;;;;;;17.51;100.00;100024.00;5031017;28;20500;-74
2021/08/06 00:34:34;;;;;;;6.45;3.40;;;;;;;17.60;100.00;100016.03;5015978;28;20033;-73
2021/08/06 00:37:01;;;;;;;4.70;3.40;;;;;;;17.51;100.00;100012.34;5006574;28;20057;-73
2021/08/06 00:39:30;;;;;;;5.40;3.45;;;;;;;17.58;100.00;100007.53;4999123;28;20124;-74
2021/08/06 00:41:56;;;;;;;7.53;3.75;;;;;;;17.69;100.00;100010.81;5024573;28;20138;-73
2021/08/06 00:44:23;;;;;;;4.60;3.75;;;;;;;17.86;100.00;100004.28;5030924;28;20033;-74
2021/08/06 00:46:50;;;;;;;5.22;3.83;;;;;;;17.59;100.00;100006.34;4999165;28;20408;-73
2021/08/06 00:49:19;;;;;;;5.75;3.92;;;;;;;17.66;100.00;100002.72;5014194;28;20665;-73
2021/08/06 00:51:49;;;;;;;6.15;3.65;;;;;;;17.56;100.00;100004.44;5016619;28;20068;-74
2021/08/06 00:54:17;;;;;;;4.75;4.03;;;;;;;17.63;100.00;100006.28;5029457;28;20044;-73
2021/08/06 00:56:53;;;;;;;5.40;3.97;;;;;;;17.68;100.00;100005.78;5025811;28;20025;-73
2021/08/06 00:59:19;;;;;;;9.75;4.18;;;;;;;17.76;100.00;99993.56;4987976;28;20125;-73
2021/08/06 01:01:53;;;;;;;5.20;3.90;;;;;;;17.79;100.00;99992.72;5007168;28;20025;-73
2021/08/06 01:04:39;;;;;;;6.70;4.15;;;;;;;17.86;100.00;99989.88;5008891;28;20128;-73
2021/08/06 01:07:13;;;;;;;6.35;4.32;;;;;;;17.94;100.00;99992.00;5024508;28;20116;-73
2021/08/06 01:09:46;;;;;;;6.90;4.25;;;;;;;17.92;100.00;99982.75;5010104;28;20494;-73
2021/08/06 01:12:32;;;;;;;6.45;3.97;;;;;;;17.81;100.00;99996.56;5013684;28;20029;-73
2021/08/06 01:15:00;;;;;;;5.80;4.50;;;;;;;17.83;100.00;99983.28;5005661;28;20030;-73
2021/08/06 01:17:33;;;;;;;8.43;4.80;;;;;;;17.83;100.00;99979.78;5025030;28;20065;-74
2021/08/06 01:20:09;;;;;;;6.72;4.35;;;;;;;17.87;100.00;99977.78;5014050;28;20126;-73
2021/08/06 01:22:44;;;;;;;4.70;4.10;;;;;;;17.89;100.00;99978.91;5027147;28;20034;-73
2021/08/06 01:25:38;;;;;;;6.25;4.63;;;;;;;17.86;100.00;99970.81;5029001;28;20056;-72
2021/08/06 01:28:05;;;;;;;5.60;4.47;;;;;;;17.86;100.00;99973.53;5015492;28;20055;-73
2021/08/06 01:30:33;;;;;;;5.32;4.53;;;;;;;17.88;100.00;99982.03;5008650;28;20033;-71
2021/08/06 01:32:59;;;;;;;7.05;4.60;;;;;;;17.84;100.00;99976.69;5014047;28;20441;-73
2021/08/06 01:35:25;;;;;;;4.80;4.32;;;;;;;17.69;100.00;99986.28;5005939;28;20052;-73
2021/08/06 01:37:52;;;;;;;5.85;4.40;;;;;;;17.60;100.00;99991.53;5004861;28;20053;-73
2021/08/06 01:40:19;;;;;;;7.57;4.80;;;;;;;17.66;100.00;99989.88;5005640;28;20033;-73
2021/08/06 01:42:58;;;;;;;7.30;4.63;;;;;;;17.70;100.00;99992.50;5030954;28;20056;-73
2021/08/06 01:45:29;;;;;;;8.45;5.25;;;;;;;17.75;100.00;99984.63;5029316;28;20057;-73
2021/08/06 01:47:56;;;;;;;6.65;5.30;;;;;;;17.70;100.00;99984.34;5028573;28;20025;-73
2021/08/06 01:50:30;;;;;;;77.75;23.35;;;;;;;17.66;100.00;99981.69;5031029;28;20052;-73
2021/08/06 01:53:06;;;;;;;8.73;5.25;;;;;;;17.54;100.00;99979.59;5011294;28;20065;-72
2021/08/06 01:55:44;;;;;;;11.02;5.00;;;;;;;17.59;100.00;99976.41;4999248;28;20033;-72
2021/08/06 01:58:13;;;;;;;9.23;4.82;;;;;;;17.42;100.00;99990.31;5024048;28;20029;-72
2021/08/06 02:00:44;;;;;;;6.38;5.13;;;;;;;17.44;100.00;99991.41;5007373;28;20049;-72
2021/08/06 02:03:10;;;;;;;6.53;4.97;;;;;;;17.21;100.00;99993.41;5013909;28;20025;-73
2021/08/06 02:05:36;;;;;;;12.55;4.90;;;;;;;17.21;100.00;99985.25;5010961;28;20663;-71
2021/08/06 02:08:16;;;;;;;5.88;4.88;;;;;;;17.03;100.00;99982.84;5018469;28;20032;-72
2021/08/06 02:10:46;;;;;;;8.30;4.82;;;;;;;17.07;100.00;99988.97;5008449;28;20048;-72
2021/08/06 02:13:14;;;;;;;6.85;5.30;;;;;;;17.33;100.00;99988.13;5028373;28;20029;-72
2021/08/06 02:15:45;;;;;;;11.02;5.10;;;;;;;17.35;100.00;99991.19;5001252;28;20045;-72
2021/08/06 02:18:12;;;;;;;5.82;4.65;;;;;;;17.43;100.00;99995.34;5028498;28;20025;-72
2021/08/06 02:20:51;;;;;;;6.78;5.35;;;;;;;17.49;100.00;99990.97;5010431;28;20032;-72
2021/08/06 02:23:18;;;;;;;8.13;4.90;;;;;;;17.53;100.00;99986.22;5004273;28;20026;-72
2021/08/06 02:25:48;;;;;;;7.75;4.72;;;;;;;17.58;100.00;99991.19;5013031;28;20025;-72
2021/08/06 02:28:14;;;;;;;6.63;4.90;;;;;;;17.63;100.00;99982.53;5003300;28;20036;-72
2021/08/06 02:30:42;;;;;;;5.70;4.93;;;;;;;17.71;100.00;99980.44;5005408;28;20042;-72
2021/08/06 02:33:08;;;;;;;8.20;5.25;;;;;;;17.66;100.00;99981.69;5002852;28;20411;-72
2021/08/06 02:35:34;;;;;;;6.20;5.00;;;;;;;17.78;100.00;99978.34;5010370;28;20124;-73
2021/08/06 02:37:59;;;;;;;6.85;5.15;;;;;;;17.79;100.00;99977.16;5011458;28;20144;-72
2021/08/06 02:40:25;;;;;;;7.15;4.55;;;;;;;17.79;100.00;99979.09;5026305;28;20033;-72
2021/08/06 02:42:54;;;;;;;6.57;4.93;;;;;;;17.63;100.00;99982.53;5022080;28;20067;-72
2021/08/06 02:45:19;;;;;;;5.15;4.50;;;;;;;17.59;100.00;99986.50;5000860;28;20033;-72
2021/08/06 02:47:45;;;;;;;4.95;4.40;;;;;;;17.70;100.00;99984.34;5023875;28;20061;-72
2021/08/06 02:50:12;;;;;;;6.80;4.40;;;;;;;17.80;100.00;99975.97;5020529;28;20033;-72
2021/08/06 02:52:38;;;;;;;8.10;5.15;;;;;;;17.76;100.00;99972.56;5011082;28;20023;-72
2021/08/06 02:55:04;;;;;;;6.10;4.88;;;;;;;17.77;100.00;99981.47;5022307;28;20021;-72
2021/08/06 02:57:31;;;;;;;7.45;5.40;;;;;;;17.69;100.00;99972.66;5011912;28;20518;-72
2021/08/06 02:59:57;;;;;;;7.90;5.03;;;;;;;17.56;100.00;99969.06;4993505;28;20105;-72
2021/08/06 03:02:24;;;;;;;5.28;4.38;;;;;;;17.45;100.00;99971.19;5021446;28;20470;-72
2021/08/06 03:04:49;;;;;;;6.93;4.10;;;;;;;17.57;100.00;99967.88;5023107;28;20034;-72
2021/08/06 03:07:18;;;;;;;5.63;4.00;;;;;;;17.70;100.00;99968.78;5012479;28;20512;-72
2021/08/06 03:09:45;;;;;;;5.57;4.07;;;;;;;17.69;100.00;99959.06;5026964;28;20087;-72
2021/08/06 03:12:11;;;;;;;4.88;3.78;;;;;;;17.71;100.00;99948.50;4993274;28;20022;-72
2021/08/06 03:14:37;;;;;;;5.05;3.80;;;;;;;17.67;100.00;99955.25;5026196;28;20543;-72
2021/08/06 03:17:03;;;;;;;6.03;3.53;;;;;;;17.75;100.00;99959.34;5028358;28;20029;-72
2021/08/06 03:19:31;;;;;;;8.20;3.47;;;;;;;17.72;100.00;99958.22;5008384;28;20109;-72
2021/08/06 03:21:58;;;;;;;5.13;4.00;;;;;;;17.64;100.00;99959.56;5010490;28;20025;-72
2021/08/06 03:24:24;;;;;;;5.47;4.00;;;;;;;17.56;100.00;99946.50;5026741;28;20379;-72
2021/08/06 03:26:50;;;;;;;3.85;3.15;;;;;;;17.56;100.00;99949.97;5004895;28;20692;-72
2021/08/06 03:29:16;;;;;;;5.35;3.70;;;;;;;17.62;100.00;99948.31;5008519;28;20406;-72
2021/08/06 03:31:42;;;;;;;4.38;3.47;;;;;;;17.59;100.00;99954.63;5021603;28;20021;-72
2021/08/06 03:34:08;;;;;;;3.30;2.85;;;;;;;17.38;100.00;99941.34;5028217;22;20482;-74
2021/08/06 03:36:33;;;;;;;5.60;3.47;;;;;;;17.41;100.00;99943.25;5012753;28;20100;-75
2021/08/06 03:38:59;;;;;;;3.28;2.63;;;;;;;17.41;100.00;99951.41;5005672;28;20108;-75
2021/08/06 03:41:25;;;;;;;3.55;2.92;;;;;;;17.32;100.00;99943.03;5000801;28;20067;-75
2021/08/06 03:43:55;;;;;;;4.15;3.20;;;;;;;17.32;100.00;99951.22;5013402;28;20460;-75
2021/08/06 03:46:21;;;;;;;3.85;2.80;;;;;;;17.10;100.00;99948.09;4997779;28;20025;-75
2021/08/06 03:48:47;;;;;;;3.05;2.75;;;;;;;16.81;100.00;99954.44;5013818;28;20075;-75
2021/08/06 03:51:13;;;;;;;3.33;2.63;;;;;;;16.93;100.00;99945.69;5032521;28;20123;-74
2021/08/06 03:53:38;;;;;;;4.28;2.75;;;;;;;17.04;100.00;99941.59;5015106;28;20048;-75
2021/08/06 03:56:04;;;;;;;4.60;2.95;;;;;;;17.02;100.00;99943.97;5011123;28;20048;-75
2021/08/06 03:58:31;;;;;;;4.57;2.45;;;;;;;16.95;100.00;99937.88;5014657;28;20116;-75
2021/08/06 04:00:57;;;;;;;3.05;2.42;;;;;;;17.03;100.00;99928.41;5009493;28;20428;-74
2021/08/06 04:03:23;;;;;;;3.25;2.45;;;;;;;17.17;100.00;99930.88;5004873;28;20048;-75
2021/08/06 04:05:49;;;;;;;3.40;2.47;;;;;;;17.13;100.00;99930.94;4997639;28;20390;-75
2021/08/06 04:08:17;;;;;;;2.38;2.00;;;;;;;16.87;100.00;99936.47;5015256;28;20029;-75
2021/08/06 04:10:49;;;;;;;;;;;;;;;16.82;100.00;99931.50;5007514;28;20041;-75
2021/08/06 04:13:14;;;;;;;2.65;2.08;;;;;;;16.87;100.00;99917.41;5015596;28;19913;-75
2021/08/06 04:15:40;;;;;;;3.17;2.15;;;;;;;16.99;100.00;99919.53;5028719;28;20041;-75
2021/08/06 04:18:05;;;;;;;2.83;2.30;;;;;;;17.06;100.00;99927.56;5007436;28;20063;-74
2021/08/06 04:20:31;;;;;;;3.28;2.38;;;;;;;17.03;100.00;99915.56;5031356;28;20036;-75
2021/08/06 04:22:56;;;;;;;2.55;2.13;;;;;;;16.92;100.00;99923.16;5030096;28;20033;-74
2021/08/06 04:25:23;;;;;;;3.05;2.58;;;;;;;16.90;100.00;99925.50;5003392;28;20069;-75
2021/08/06 04:27:50;;;;;;;2.53;2.13;;;;;;;16.92;100.00;99927.81;5012365;28;20018;-75
2021/08/06 04:30:15;;;;;;;3.03;2.28;;;;;;;16.92;100.00;99922.38;5002606;28;20044;-75
2021/08/06 04:32:41;;;;;;;3.42;2.38;;;;;;;16.95;100.00;99916.13;4996338;28;20037;-74
2021/08/06 04:35:27;;;;;;;2.67;2.15;;;;;;;17.05;100.00;99917.88;4996939;28;20551;-75
2021/08/06 04:37:54;;;;;;;3.08;2.08;;;;;;;17.05;100.00;99924.06;4968219;28;20039;-75
2021/08/06 04:40:25;;;;;;;3.08;2.15;;;;;;;17.06;100.00;99922.13;4968240;28;20046;-75
2021/08/06 04:42:51;;;;;;;3.03;2.25;;;;;;;17.10;100.00;99917.41;4951340;28;20629;-74
2021/08/06 04:45:18;;;;;;;3.92;2.58;;;;;;;17.11;100.00;99916.22;4948778;28;20438;-74
2021/08/06 04:47:51;;;;;;;3.85;2.65;;;;;;;17.02;100.00;99915.97;4942448;28;20220;-74
2021/08/06 04:50:19;;;;;;;3.70;2.47;;;;;;;17.08;100.00;99911.59;4955006;28;20558;-76
2021/08/06 04:52:45;;;;;;;4.13;2.40;;;;;;;17.06;100.00;99912.03;4960780;28;20082;-74
2021/08/06 04:55:12;;;;;;;4.47;2.83;;;;;;;17.00;100.00;99923.78;4947397;28;20098;-74
2021/08/06 04:57:40;;;;;;;4.55;2.80;;;;;;;17.14;100.00;99916.16;4946254;28;20033;-74
2021/08/06 05:00:08;;;;;;;4.68;2.28;;;;;;;17.14;100.00;99907.22;4952868;28;20059;-74
2021/08/06 05:02:34;;;;;;;3.53;2.78;;;;;;;17.19;100.00;99904.00;4954912;28;20511;-74
2021/08/06 05:05:06;;;;;;;3.03;2.25;;;;;;;17.02;100.00;99911.31;4966541;28;20090;-73
2021/08/06 05:07:58;;;;;;;3.72;2.40;;;;;;;16.92;100.00;99909.53;4969203;28;20097;-73
2021/08/06 05:10:36;;;;;;;3.10;2.30;;;;;;;17.11;100.00;99897.19;4967830;28;20050;-75
2021/08/06 05:13:01;;;;;;;3.47;2.55;;;;;;;17.10;100.00;99890.19;4951272;28;20049;-73
2021/08/06 05:15:27;;;;;;;4.32;2.97;;;;;;;16.99;100.00;99886.91;4993883;28;20041;-73
2021/08/06 05:17:57;;;;;;;3.00;2.47;;;;;;;17.19;100.00;99895.84;5008832;28;20042;-73
2021/08/06 05:20:22;;;;;;;3.55;2.50;;;;;;;17.35;100.00;99889.69;5032342;28;20037;-72
2021/08/06 05:22:49;;;;;;;3.63;2.33;;;;;;;17.37;100.00;99895.50;5011711;28;20035;-73
2021/08/06 05:25:16;;;;;;;3.38;2.30;;;;;;;17.38;100.00;99889.63;4995198;28;20037;-77
2021/08/06 05:27:43;;;;;;;3.40;2.50;;;;;;;17.70;100.00;99889.78;5022869;28;20029;-73
2021/08/06 05:30:30;;;;;;;2.80;2.20;;;;;;;17.64;100.00;99888.75;5004049;28;20033;-74
2021/08/06 05:32:56;;;;;;;2.42;1.70;;;;;;;18.44;100.00;99884.63;4963795;28;20046;-73
2021/08/06 05:35:24;;;;;;;2.42;2.10;;;;;;;19.39;100.00;99893.09;4946744;28;20046;-72
2021/08/06 05:37:54;;;;;;;2.53;1.83;;;;;;;20.42;98.59;99884.09;4952137;28;20042;-73
2021/08/06 05:40:19;;;;;;;2.25;1.90;;;;;;;21.05;93.45;99875.75;4951615;28;20563;-72
2021/08/06 05:42:45;;;;;;;2.55;1.80;;;;;;;21.61;90.85;99886.63;4966902;28;20133;-73
2021/08/06 05:45:11;;;;;;;2.45;1.90;;;;;;;21.91;87.51;99880.41;4955076;28;20050;-73
2021/08/06 05:47:43;;;;;;;2.53;1.70;;;;;;;22.08;86.23;99889.19;4955958;28;20034;-72
2021/08/06 05:50:10;;;;;;;1.65;1.55;;;;;;;22.28;84.90;99882.06;4979036;28;20050;-72
2021/08/06 05:52:35;;;;;;;1.80;1.50;;;;;;;22.44;85.06;99887.31;4956662;28;20046;-72
2021/08/06 05:55:00;;;;;;;1.50;1.40;;;;;;;22.60;82.95;99886.31;4956223;28;20130;-72
2021/08/06 05:57:26;;;;;;;1.58;1.48;;;;;;;22.31;81.55;99881.19;4965367;28;20465;-77
2021/08/06 05:59:51;;;;;;;2.40;1.63;;;;;;;22.24;83.20;99886.19;4971236;28;20070;-75
2021/08/06 06:02:17;;;;;;;1.48;1.30;;;;;;;22.03;85.12;99885.03;4956402;28;20698;-72
2021/08/06 06:04:54;;;;;;;1.80;1.52;;;;;;;22.42;86.52;99878.75;4950427;28;20058;-75
2021/08/06 06:07:20;;;;;;;1.70;1.40;;;;;;;22.40;84.91;99881.19;4955669;28;20424;-74
2021/08/06 06:09:46;;;;;;;1.80;1.50;;;;;;;22.31;83.48;99883.16;4972159;28;20410;-75
2021/08/06 06:12:12;;;;;;;2.03;1.52;;;;;;;22.27;84.38;99879.78;4996789;28;20028;-75
2021/08/06 06:14:38;;;;;;;1.70;1.42;;;;;;;22.42;85.39;99880.75;5029620;28;20064;-72
2021/08/06 06:17:24;;;;;;;1.58;1.42;;;;;;;22.47;86.51;99874.66;4994463;28;20017;-73
2021/08/06 06:19:51;;;;;;;1.45;1.35;;;;;;;22.45;86.61;99875.09;4969360;28;20045;-73
2021/08/06 06:22:17;;;;;;;1.52;1.30;;;;;;;22.40;85.18;99875.72;4952465;28;20834;-73
2021/08/06 06:24:42;;;;;;;1.77;1.20;;;;;;;22.37;87.42;99884.09;4966436;28;20133;-72
2021/08/06 06:27:09;;;;;;;1.45;1.33;;;;;;;22.37;88.03;99884.09;4948525;28;20042;-73
2021/08/06 06:29:35;;;;;;;1.90;1.50;;;;;;;22.43;87.37;99882.28;4967542;28;20070;-73
2021/08/06 06:32:01;;;;;;;1.75;1.45;;;;;;;22.05;86.10;99879.88;4953623;28;20523;-74
2021/08/06 06:34:27;;;;;;;1.50;1.25;;;;;;;22.12;85.91;99882.34;4949415;28;20057;-73
2021/08/06 06:36:53;;;;;;;1.60;1.23;;;;;;;21.59;86.70;99894.53;4958272;28;20044;-74
2021/08/06 06:39:18;;;;;;;1.30;1.20;;;;;;;21.74;87.95;99884.56;4949075;28;20118;-72
2021/08/06 06:41:45;;;;;;;1.33;1.20;;;;;;;21.80;89.64;99885.53;4952936;28;20641;-72
2021/08/06 06:44:23;;;;;;;1.55;1.20;;;;;;;22.04;90.43;99891.28;4952272;28;20122;-74
2021/08/06 06:46:48;;;;;;;1.40;1.20;;;;;;;21.84;87.23;99882.66;4953207;28;20432;-73
2021/08/06 06:49:15;;;;;;;1.20;1.10;;;;;;;21.55;86.99;99880.19;4951914;28;20094;-75
2021/08/06 06:51:40;;;;;;;1.48;1.10;;;;;;;21.67;89.55;99878.59;4964194;28;20052;-73
2021/08/06 06:54:06;;;;;;;2.22;1.38;;;;;;;21.96;88.44;99868.88;4940198;28;20127;-74
2021/08/06 06:56:31;;;;;;;1.48;1.20;;;;;;;22.14;88.58;99879.88;4974140;28;20041;-75
2021/08/06 06:58:57;;;;;;;1.30;1.20;;;;;;;22.22;86.60;99883.13;5020534;28;20540;-73
2021/08/06 07:01:25;;;;;;;1.88;1.23;;;;;;;22.19;89.78;99864.81;5013093;28;20487;-73
2021/08/06 07:03:50;;;;;;;1.50;1.05;;;;;;;22.44;88.72;99868.09;5020730;28;20600;-73
2021/08/06 07:06:19;;;;;;;1.38;1.27;;;;;;;22.64;87.46;99875.94;5021934;28;20096;-73
2021/08/06 07:08:44;;;;;;;0.95;0.95;;;;;;;22.67;87.40;99877.75;5027454;28;20094;-72
2021/08/06 07:11:10;;;;;;;1.25;1.13;;;;;;;22.69;86.97;99875.31;5007599;28;20025;-74
2021/08/06 07:13:37;;;;;;;1.20;1.10;;;;;;;22.55;86.11;99870.38;5004817;28;20116;-72
2021/08/06 07:16:02;;;;;;;1.40;1.30;;;;;;;22.52;87.95;99868.56;5008007;28;20108;-72
2021/08/06 07:18:28;;;;;;;1.30;1.20;;;;;;;22.62;88.76;99870.16;4999300;28;20026;-73
2021/08/06 07:20:54;;;;;;;1.25;1.10;;;;;;;22.77;85.33;99868.31;5023404;28;20167;-73
2021/08/06 07:23:19;;;;;;;1.10;1.00;;;;;;;22.67;84.48;99880.50;5011325;28;20100;-73
2021/08/06 07:25:47;;;;;;;1.30;1.20;;;;;;;22.39;84.39;99870.69;5011438;28;20029;-73
2021/08/06 07:28:13;;;;;;;1.70;1.30;;;;;;;22.75;85.46;99867.25;5014569;28;20410;-72
2021/08/06 07:30:38;;;;;;;1.10;1.00;;;;;;;22.45;83.51;99877.09;5011627;28;20084;-73
2021/08/06 07:33:05;;;;;;;1.23;0.88;;;;;;;22.80;84.85;99881.13;5008932;28;20022;-73
2021/08/06 07:35:33;;;;;;;1.05;0.95;;;;;;;23.12;86.87;99872.28;5020212;28;20030;-73
2021/08/06 07:37:59;;;;;;;1.30;1.20;;;;;;;23.20;80.99;99868.03;5010991;28;20406;-73
2021/08/06 07:40:25;;;;;;;1.02;0.95;;;;;;;23.39;83.57;99874.28;5031749;28;20099;-72
2021/08/06 07:42:53;;;;;;;1.23;1.08;;;;;;;23.37;82.52;99871.22;5017698;28;20103;-74
2021/08/06 07:45:21;;;;;;;1.30;1.20;;;;;;;23.44;83.46;99865.41;5015400;28;20055;-73
2021/08/06 07:47:47;;;;;;;1.20;0.90;;;;;;;23.56;83.80;99858.97;5012840;28;20030;-73
2021/08/06 07:50:13;;;;;;;1.00;0.90;;;;;;;23.37;82.07;99862.97;5001572;28;20055;-72
2021/08/06 07:52:39;;;;;;;1.20;1.10;;;;;;;23.40;79.97;99864.03;5011383;28;20029;-73
2021/08/06 07:55:07;;;;;;;1.70;1.02;;;;;;;23.52;83.09;99863.84;5025938;28;20060;-76
2021/08/06 07:57:32;;;;;;;1.08;0.98;;;;;;;23.76;82.75;99864.72;5009969;28;20029;-73
2021/08/06 07:59:58;;;;;;;1.20;1.10;;;;;;;23.76;79.19;99861.19;5002088;28;20124;-73
2021/08/06 08:02:26;;;;;;;1.20;1.10;;;;;;;23.68;79.34;99866.25;5008576;28;20029;-77
2021/08/06 08:04:51;;;;;;;1.00;0.90;;;;;;;23.62;80.69;99867.34;5028175;28;20033;-73
2021/08/06 08:07:17;;;;;;;1.00;0.90;;;;;;;23.58;81.66;99869.47;5011547;28;20026;-74
2021/08/06 08:09:43;;;;;;;1.15;0.90;;;;;;;23.74;83.26;99858.91;5009566;28;20478;-75
2021/08/06 08:12:10;;;;;;;1.10;1.00;;;;;;;24.16;85.98;99856.16;5011764;28;20045;-72
2021/08/06 08:14:36;;;;;;;1.48;1.10;;;;;;;23.60;80.17;99861.53;5008611;28;20038;-73
2021/08/06 08:17:02;;;;;;;0.73;0.73;;;;;;;23.52;82.61;99854.88;5009966;28;20040;-73
2021/08/06 08:19:28;;;;;;;1.33;1.05;;;;;;;24.02;81.03;99856.84;5011737;28;20378;-73
2021/08/06 08:21:54;;;;;;;1.35;0.90;;;;;;;23.84;80.80;99859.63;5015083;28;20025;-73
2021/08/06 08:24:20;;;;;;;1.00;0.70;;;;;;;23.82;79.54;99848.34;5011835;28;20028;-73
2021/08/06 08:26:49;;;;;;;0.95;0.73;;;;;;;23.32;78.48;99860.09;5017558;28;20405;-73
2021/08/06 08:29:15;;;;;;;2.33;0.85;;;;;;;23.53;80.09;99853.63;5031855;28;20040;-78
2021/08/06 08:31:40;;;;;;;1.00;0.90;;;;;;;23.41;80.22;99854.56;5009627;28;20116;-73
2021/08/06 08:34:06;;;;;;;1.25;0.98;;;;;;;23.51;78.31;99853.31;5005716;28;20033;-73
2021/08/06 08:36:32;;;;;;;0.90;0.80;;;;;;;23.72;75.84;99846.84;5032635;28;20037;-73
2021/08/06 08:38:57;;;;;;;1.17;0.73;;;;;;;23.87;74.66;99848.47;5030055;28;20030;-73
2021/08/06 08:41:23;;;;;;;0.75;0.65;;;;;;;23.84;72.15;99854.13;5001376;28;20032;-73
2021/08/06 08:43:50;;;;;;;1.08;0.90;;;;;;;23.50;72.97;99851.81;5021039;28;20136;-72
2021/08/06 08:46:20;;;;;;;1.00;0.90;;;;;;;23.75;78.75;99843.91;5013079;28;20565;-74
2021/08/06 08:48:49;;;;;;;0.70;0.70;;;;;;;24.36;72.85;99830.81;5014527;28;20025;-73
2021/08/06 08:51:15;;;;;;;1.45;1.05;;;;;;;24.13;73.12;99833.09;4998844;28;20069;-73
2021/08/06 08:53:41;;;;;;;0.98;0.88;;;;;;;23.90;73.44;99833.03;5011466;28;20056;-74
2021/08/06 08:56:06;;;;;;;1.23;0.80;;;;;;;24.33;74.98;99829.00;5030659;28;20474;-72
2021/08/06 08:58:32;;;;;;;0.75;0.75;;;;;;;24.37;70.29;99833.09;5016494;28;20026;-73
2021/08/06 09:00:58;;;;;;;1.02;0.88;;;;;;;24.02;73.20;99829.34;4994907;28;20513;-75
2021/08/06 09:03:49;;;;;;;1.40;1.10;;;;;;;23.90;73.40;99828.28;5000475;28;20109;-74
2021/08/06 09:06:41;;;;;;;1.00;0.80;;;;;;;23.77;73.75;99832.47;5013512;28;20494;-75
2021/08/06 09:09:16;;;;;;;1.08;0.90;;;;;;;24.23;73.34;99827.53;5012981;28;20021;-73
2021/08/06 09:12:08;;;;;;;0.80;0.75;;;;;;;24.34;71.02;99825.00;5022433;28;20509;-73
2021/08/06 09:14:48;;;;;;;1.27;0.90;;;;;;;25.14;70.41;99824.84;5015039;28;20036;-77
2021/08/06 09:17:14;;;;;;;0.80;0.80;;;;;;;25.35;66.71;99821.72;5032192;28;20033;-74
2021/08/06 09:19:54;;;;;;;1.17;0.90;;;;;;;25.35;68.91;99813.47;5026847;28;20079;-74
2021/08/06 09:22:24;;;;;;;1.02;0.70;;;;;;;25.25;66.91;99819.53;5003205;28;20036;-74
2021/08/06 09:25:02;;;;;;;1.02;0.98;;;;;;;25.40;66.20;99812.03;5020680;28;20037;-75
2021/08/06 09:27:32;;;;;;;0.77;0.73;;;;;;;25.80;66.17;99804.66;5021479;28;20602;-73
2021/08/06 09:29:58;;;;;;;0.65;0.63;;;;;;;25.63;63.08;99806.41;5008888;28;20045;-76
2021/08/06 09:32:24;;;;;;;0.95;0.70;;;;;;;25.21;64.31;99807.94;5030057;28;20025;-73
2021/08/06 09:34:50;;;;;;;1.05;0.90;;;;;;;25.16;63.32;99801.09;5063227;22;20033;-73
2021/08/06 09:37:19;;;;;;;0.65;0.60;;;;;;;25.77;64.98;99804.84;5063690;28;20029;-74
2021/08/06 09:39:53;;;;;;;1.05;0.80;;;;;;;25.98;68.20;99802.91;5071509;28;20032;-72
2021/08/06 09:42:27;;;;;;;0.95;0.70;;;;;;;26.09;63.78;99808.63;5067193;28;20040;-72
2021/08/06 09:45:00;;;;;;;0.82;0.80;;;;;;;26.26;63.62;99804.84;5048005;28;20041;-73
2021/08/06 09:47:27;;;;;;;0.80;0.80;;;;;;;26.50;59.43;99821.94;5047929;28;20405;-72
2021/08/06 09:49:57;;;;;;;0.60;0.60;;;;;;;25.99;59.90;99816.22;5045288;28;20156;-73
2021/08/06 09:52:31;;;;;;;0.60;0.55;;;;;;;26.00;59.52;99806.69;5032715;28;20083;-72
2021/08/06 09:54:57;;;;;;;0.73;0.68;;;;;;;25.95;59.24;99810.16;5028106;28;20052;-71
2021/08/06 09:57:22;;;;;;;0.82;0.70;;;;;;;26.33;61.81;99800.88;5031201;28;20545;-72
2021/08/06 09:59:53;;;;;;;1.13;0.65;;;;;;;26.45;59.17;99802.56;5040179;28;20025;-72
2021/08/06 10:02:32;;;;;;;0.55;0.55;;;;;;;26.98;59.27;99802.16;5049062;28;20094;-72
2021/08/06 10:05:06;;;;;;;0.65;0.60;;;;;;;26.57;58.02;99799.44;5038511;28;20117;-72
2021/08/06 10:07:37;;;;;;;0.88;0.75;;;;;;;26.61;59.12;99800.00;5053827;28;20040;-73
2021/08/06 10:10:05;;;;;;;0.73;0.65;;;;;;;26.70;58.96;99791.59;5049708;28;20447;-73
2021/08/06 10:12:31;;;;;;;0.80;0.80;;;;;;;27.14;57.61;99784.97;5042234;28;20094;-73
2021/08/06 10:14:57;;;;;;;0.68;0.60;;;;;;;27.16;59.75;99793.56;5038106;28;20037;-73
2021/08/06 10:17:23;;;;;;;0.80;0.60;;;;;;;27.45;57.53;99787.75;5049854;28;20040;-72
2021/08/06 10:19:50;;;;;;;0.70;0.70;;;;;;;27.32;58.30;99781.84;5021635;28;20017;-72
2021/08/06 10:22:16;;;;;;;0.63;0.63;;;;;;;27.98;57.04;99779.59;5046531;28;20036;-72
2021/08/06 10:24:45;;;;;;;1.05;0.93;;;;;;;27.27;56.17;99783.34;5047818;28;20039;-73
2021/08/06 10:27:13;;;;;;;0.70;0.70;;;;;;;26.84;58.32;99783.66;5049888;28;20489;-74
2021/08/06 10:29:57;;;;;;;1.30;0.80;;;;;;;25.88;59.97;99777.41;5050675;28;20041;-72
2021/08/06 10:32:23;;;;;;;0.82;0.82;;;;;;;26.29;60.39;99776.25;5036791;28;20052;-72
2021/08/06 10:35:10;;;;;;;0.93;0.93;;;;;;;25.96;60.54;99784.06;5043725;28;20035;-74
2021/08/06 10:37:45;;;;;;;1.05;0.95;;;;;;;26.01;61.43;99774.34;5049084;28;20021;-73
2021/08/06 10:40:10;;;;;;;0.65;0.65;;;;;;;26.39;62.39;99774.88;5048608;28;20036;-74
2021/08/06 10:42:36;;;;;;;0.93;0.90;;;;;;;27.14;62.27;99771.91;5051568;28;20025;-73
2021/08/06 10:45:02;;;;;;;1.10;1.00;;;;;;;27.32;57.40;99773.56;5044174;28;20449;-74
2021/08/06 10:47:51;;;;;;;1.08;0.98;;;;;;;27.25;54.83;99768.47;5049971;28;20072;-73
2021/08/06 10:50:19;;;;;;;0.77;0.77;;;;;;;26.82;56.43;99766.81;5053821;28;20036;-74
2021/08/06 10:53:13;;;;;;;0.80;0.80;;;;;;;26.72;56.22;99772.50;5035244;28;20032;-74
2021/08/06 10:55:38;;;;;;;0.70;0.70;;;;;;;26.44;58.24;99767.91;5041609;28;20040;-74
2021/08/06 10:58:04;;;;;;;1.02;0.80;;;;;;;26.47;58.67;99759.38;5049480;28;20154;-74
2021/08/06 11:00:35;;;;;;;0.75;0.75;;;;;;;26.78;58.51;99765.03;5049037;28;20477;-74
2021/08/06 11:03:01;;;;;;;1.10;1.00;;;;;;;27.13;56.12;99759.31;5026538;28;20123;-74
2021/08/06 11:05:35;;;;;;;0.90;0.85;;;;;;;27.40;57.13;99760.81;5040620;28;20053;-74
2021/08/06 11:08:04;;;;;;;0.80;0.80;;;;;;;27.59;54.45;99757.19;5055907;28;20503;-74
2021/08/06 11:10:50;;;;;;;1.00;0.90;;;;;;;27.74;53.82;99745.94;5053671;28;20506;-74
2021/08/06 11:13:31;;;;;;;0.80;0.80;;;;;;;27.88;53.63;99747.03;5048804;28;20029;-73
2021/08/06 11:16:10;;;;;;;0.90;0.70;;;;;;;27.71;54.87;99760.78;5027324;28;20053;-74
2021/08/06 11:18:41;;;;;;;0.88;0.77;;;;;;;26.96;57.75;99743.84;5031740;28;20049;-73
2021/08/06 11:21:07;;;;;;;0.65;0.63;;;;;;;26.78;55.91;99745.69;5030588;28;20128;-73
2021/08/06 11:23:33;;;;;;;1.05;0.95;;;;;;;26.76;55.92;99742.66;5043209;28;20094;-74
2021/08/06 11:26:10;;;;;;;1.05;0.95;;;;;;;26.36;58.20;99748.22;5024718;28;20040;-73
2021/08/06 11:28:36;;;;;;;0.95;0.95;;;;;;;25.81;59.76;99739.19;5023317;28;20033;-74
2021/08/06 11:31:19;;;;;;;0.93;0.90;;;;;;;25.44;60.94;99727.88;5025963;28;20088;-73
2021/08/06 11:33:57;;;;;;;1.10;1.00;;;;;;;25.51;62.94;99737.75;5048061;28;20037;-73
2021/08/06 11:36:22;;;;;;;1.20;1.10;;;;;;;25.55;61.55;99727.28;5037012;28;20488;-74